sensor_id;sensor_type;location;lat;lon;timestamp;P1;durP1;ratioP1;P2;durP2;ratioP2
6735;SDS011;3405;50.576;12.364;2023-01-28T00:01:48;5.15;;;3.53;;
6735;SDS011;3405;50.576;12.364;2023-01-28T00:04:14;4.72;;;3.90;;
6735;SDS011;3405;50.576;12.364;2023-01-28T00:06:40;4.95;;;3.65;;
6735;SDS011;3405;50.576;12.364;2023-01-28T00:09:06;5.32;;;3.85;;
6735;SDS011;3405;50.576;12.364;2023-01-28T00:11:32;5.38;;;4.03;;
6735;SDS011;3405;50.576;12.364;2023-01-28T00:13:58;4.65;;;3.80;;
6735;SDS011;3405;50.576;12.364;2023-01-28T00:16:24;4.93;;;4.00;;
6735;SDS011;3405;50.576;12.364;2023-01-28T00:18:51;5.72;;;3.72;;
6735;SDS011;3405;50.576;12.364;2023-01-28T00:21:17;4.85;;;3.60;;
6735;SDS011;3405;50.576;12.364;2023-01-28T00:23:46;6.30;;;4.22;;
6735;SDS011;3405;50.576;12.364;2023-01-28T00:26:13;5.75;;;3.42;;
6735;SDS011;3405;50.576;12.364;2023-01-28T00:28:40;4.57;;;3.58;;
6735;SDS011;3405;50.576;12.364;2023-01-28T00:31:16;6.90;;;3.88;;
6735;SDS011;3405;50.576;12.364;2023-01-28T00:33:43;4.70;;;3.65;;
6735;SDS011;3405;50.576;12.364;2023-01-28T00:36:09;4.60;;;3.35;;
6735;SDS011;3405;50.576;12.364;2023-01-28T00:38:36;5.38;;;4.00;;
6735;SDS011;3405;50.576;12.364;2023-01-28T00:41:15;4.05;;;3.50;;
6735;SDS011;3405;50.576;12.364;2023-01-28T00:43:42;5.25;;;3.70;;
6735;SDS011;3405;50.576;12.364;2023-01-28T00:46:10;5.80;;;3.78;;
6735;SDS011;3405;50.576;12.364;2023-01-28T00:48:36;3.92;;;3.50;;
6735;SDS011;3405;50.576;12.364;2023-01-28T00:51:04;3.92;;;3.47;;
6735;SDS011;3405;50.576;12.364;2023-01-28T00:53:30;4.93;;;3.53;;
6735;SDS011;3405;50.576;12.364;2023-01-28T00:55:56;5.40;;;3.80;;
6735;SDS011;3405;50.576;12.364;2023-01-28T00:58:21;4.57;;;3.55;;
6735;SDS011;3405;50.576;12.364;2023-01-28T01:00:48;4.70;;;3.78;;
6735;SDS011;3405;50.576;12.364;2023-01-28T01:03:14;4.88;;;3.85;;
6735;SDS011;3405;50.576;12.364;2023-01-28T01:05:40;5.25;;;3.65;;
6735;SDS011;3405;50.576;12.364;2023-01-28T01:08:06;4.88;;;3.63;;
6735;SDS011;3405;50.576;12.364;2023-01-28T01:10:32;5.22;;;3.70;;
6735;SDS011;3405;50.576;12.364;2023-01-28T01:12:58;5.30;;;3.80;;
6735;SDS011;3405;50.576;12.364;2023-01-28T01:15:24;4.68;;;3.58;;
6735;SDS011;3405;50.576;12.364;2023-01-28T01:17:51;5.50;;;4.00;;
6735;SDS011;3405;50.576;12.364;2023-01-28T01:20:18;6.47;;;3.42;;
6735;SDS011;3405;50.576;12.364;2023-01-28T01:22:44;4.57;;;3.78;;
6735;SDS011;3405;50.576;12.364;2023-01-28T01:25:14;5.20;;;3.78;;
6735;SDS011;3405;50.576;12.364;2023-01-28T01:27:41;3.65;;;3.22;;
6735;SDS011;3405;50.576;12.364;2023-01-28T01:30:07;4.32;;;3.80;;
6735;SDS011;3405;50.576;12.364;2023-01-28T01:32:33;5.20;;;3.92;;
6735;SDS011;3405;50.576;12.364;2023-01-28T01:35:00;5.55;;;3.53;;
6735;SDS011;3405;50.576;12.364;2023-01-28T01:37:26;4.15;;;3.72;;
6735;SDS011;3405;50.576;12.364;2023-01-28T01:39:52;5.05;;;3.92;;
6735;SDS011;3405;50.576;12.364;2023-01-28T01:42:18;4.85;;;3.90;;
6735;SDS011;3405;50.576;12.364;2023-01-28T01:47:12;4.22;;;3.70;;
6735;SDS011;3405;50.576;12.364;2023-01-28T01:49:38;3.97;;;3.58;;
6735;SDS011;3405;50.576;12.364;2023-01-28T01:52:06;5.07;;;3.85;;
6735;SDS011;3405;50.576;12.364;2023-01-28T01:54:33;4.75;;;3.83;;
6735;SDS011;3405;50.576;12.364;2023-01-28T01:57:00;4.70;;;3.90;;
6735;SDS011;3405;50.576;12.364;2023-01-28T01:59:28;4.55;;;3.60;;
6735;SDS011;3405;50.576;12.364;2023-01-28T02:01:54;5.63;;;3.70;;
6735;SDS011;3405;50.576;12.364;2023-01-28T02:04:28;4.68;;;3.80;;
6735;SDS011;3405;50.576;12.364;2023-01-28T02:06:56;4.43;;;3.58;;
6735;SDS011;3405;50.576;12.364;2023-01-28T02:09:24;4.70;;;3.63;;
6735;SDS011;3405;50.576;12.364;2023-01-28T02:11:51;4.32;;;3.72;;
6735;SDS011;3405;50.576;12.364;2023-01-28T02:14:19;4.68;;;3.67;;
6735;SDS011;3405;50.576;12.364;2023-01-28T02:16:46;3.88;;;3.20;;
6735;SDS011;3405;50.576;12.364;2023-01-28T02:19:12;5.03;;;3.63;;
6735;SDS011;3405;50.576;12.364;2023-01-28T02:24:44;4.07;;;3.67;;
6735;SDS011;3405;50.576;12.364;2023-01-28T02:27:19;5.03;;;3.35;;
6735;SDS011;3405;50.576;12.364;2023-01-28T02:29:51;4.03;;;3.63;;
6735;SDS011;3405;50.576;12.364;2023-01-28T02:32:29;4.15;;;3.47;;
6735;SDS011;3405;50.576;12.364;2023-01-28T02:35:17;3.92;;;3.17;;
6735;SDS011;3405;50.576;12.364;2023-01-28T02:37:51;3.40;;;3.10;;
6735;SDS011;3405;50.576;12.364;2023-01-28T02:40:22;3.83;;;3.22;;
6735;SDS011;3405;50.576;12.364;2023-01-28T02:42:51;3.67;;;3.30;;
6735;SDS011;3405;50.576;12.364;2023-01-28T02:45:19;3.22;;;2.70;;
6735;SDS011;3405;50.576;12.364;2023-01-28T02:47:46;4.13;;;3.10;;
6735;SDS011;3405;50.576;12.364;2023-01-28T02:50:30;4.75;;;3.38;;
6735;SDS011;3405;50.576;12.364;2023-01-28T02:53:08;3.58;;;2.88;;
6735;SDS011;3405;50.576;12.364;2023-01-28T02:56:29;3.53;;;2.95;;
6735;SDS011;3405;50.576;12.364;2023-01-28T03:01:27;3.70;;;3.20;;
6735;SDS011;3405;50.576;12.364;2023-01-28T03:03:58;3.47;;;3.10;;
6735;SDS011;3405;50.576;12.364;2023-01-28T03:06:27;4.00;;;2.88;;
6735;SDS011;3405;50.576;12.364;2023-01-28T03:08:57;3.40;;;2.78;;
6735;SDS011;3405;50.576;12.364;2023-01-28T03:11:43;3.90;;;2.92;;
6735;SDS011;3405;50.576;12.364;2023-01-28T03:14:29;3.30;;;2.95;;
6735;SDS011;3405;50.576;12.364;2023-01-28T03:17:17;3.50;;;2.72;;
6735;SDS011;3405;50.576;12.364;2023-01-28T03:20:04;2.95;;;2.65;;
6735;SDS011;3405;50.576;12.364;2023-01-28T03:22:50;3.45;;;2.80;;
6735;SDS011;3405;50.576;12.364;2023-01-28T03:25:36;4.80;;;2.83;;
6735;SDS011;3405;50.576;12.364;2023-01-28T03:28:22;4.28;;;2.70;;
6735;SDS011;3405;50.576;12.364;2023-01-28T03:31:11;3.13;;;2.63;;
6735;SDS011;3405;50.576;12.364;2023-01-28T03:33:56;3.17;;;2.35;;
6735;SDS011;3405;50.576;12.364;2023-01-28T03:36:42;3.42;;;2.85;;
6735;SDS011;3405;50.576;12.364;2023-01-28T03:39:23;4.07;;;2.67;;
6735;SDS011;3405;50.576;12.364;2023-01-28T03:42:05;2.83;;;2.50;;
6735;SDS011;3405;50.576;12.364;2023-01-28T03:44:32;2.50;;;2.30;;
6735;SDS011;3405;50.576;12.364;2023-01-28T03:47:13;2.47;;;2.28;;
6735;SDS011;3405;50.576;12.364;2023-01-28T03:49:40;3.00;;;2.78;;
6735;SDS011;3405;50.576;12.364;2023-01-28T03:52:06;3.10;;;2.70;;
6735;SDS011;3405;50.576;12.364;2023-01-28T03:54:32;4.55;;;2.63;;
6735;SDS011;3405;50.576;12.364;2023-01-28T03:56:58;3.45;;;2.80;;
6735;SDS011;3405;50.576;12.364;2023-01-28T03:59:23;3.38;;;2.72;;
6735;SDS011;3405;50.576;12.364;2023-01-28T04:01:49;3.15;;;2.30;;
6735;SDS011;3405;50.576;12.364;2023-01-28T04:04:15;3.08;;;2.65;;
6735;SDS011;3405;50.576;12.364;2023-01-28T04:06:48;2.30;;;2.10;;
6735;SDS011;3405;50.576;12.364;2023-01-28T04:09:14;2.78;;;2.47;;
6735;SDS011;3405;50.576;12.364;2023-01-28T04:11:40;2.33;;;2.13;;
6735;SDS011;3405;50.576;12.364;2023-01-28T04:14:05;3.38;;;2.58;;
6735;SDS011;3405;50.576;12.364;2023-01-28T04:16:31;2.80;;;2.25;;
6735;SDS011;3405;50.576;12.364;2023-01-28T04:18:57;2.72;;;2.35;;
6735;SDS011;3405;50.576;12.364;2023-01-28T04:21:23;3.35;;;2.70;;
6735;SDS011;3405;50.576;12.364;2023-01-28T04:23:49;2.80;;;2.47;;
6735;SDS011;3405;50.576;12.364;2023-01-28T04:26:15;2.90;;;2.38;;
6735;SDS011;3405;50.576;12.364;2023-01-28T04:28:41;3.25;;;2.70;;
6735;SDS011;3405;50.576;12.364;2023-01-28T04:31:07;3.13;;;2.67;;
6735;SDS011;3405;50.576;12.364;2023-01-28T04:33:33;2.60;;;2.38;;
6735;SDS011;3405;50.576;12.364;2023-01-28T04:35:59;2.50;;;2.22;;
6735;SDS011;3405;50.576;12.364;2023-01-28T04:38:25;2.53;;;2.00;;
6735;SDS011;3405;50.576;12.364;2023-01-28T04:40:51;5.95;;;2.33;;
6735;SDS011;3405;50.576;12.364;2023-01-28T04:43:17;2.55;;;2.17;;
6735;SDS011;3405;50.576;12.364;2023-01-28T04:45:44;2.40;;;2.20;;
6735;SDS011;3405;50.576;12.364;2023-01-28T04:48:10;3.40;;;2.47;;
6735;SDS011;3405;50.576;12.364;2023-01-28T04:50:36;2.63;;;2.17;;
6735;SDS011;3405;50.576;12.364;2023-01-28T04:53:01;2.58;;;2.08;;
6735;SDS011;3405;50.576;12.364;2023-01-28T04:55:27;2.38;;;2.00;;
6735;SDS011;3405;50.576;12.364;2023-01-28T04:57:53;2.10;;;1.90;;
6735;SDS011;3405;50.576;12.364;2023-01-28T05:00:19;2.45;;;2.10;;
6735;SDS011;3405;50.576;12.364;2023-01-28T05:02:45;2.30;;;2.10;;
6735;SDS011;3405;50.576;12.364;2023-01-28T05:05:11;2.30;;;2.10;;
6735;SDS011;3405;50.576;12.364;2023-01-28T05:07:37;2.58;;;1.98;;
6735;SDS011;3405;50.576;12.364;2023-01-28T05:10:03;2.20;;;2.00;;
6735;SDS011;3405;50.576;12.364;2023-01-28T05:12:29;2.40;;;2.20;;
6735;SDS011;3405;50.576;12.364;2023-01-28T05:14:56;2.35;;;2.15;;
6735;SDS011;3405;50.576;12.364;2023-01-28T05:17:24;2.20;;;1.75;;
6735;SDS011;3405;50.576;12.364;2023-01-28T05:19:50;2.30;;;2.05;;
6735;SDS011;3405;50.576;12.364;2023-01-28T05:22:16;2.17;;;1.98;;
6735;SDS011;3405;50.576;12.364;2023-01-28T05:24:42;2.13;;;1.92;;
6735;SDS011;3405;50.576;12.364;2023-01-28T05:27:08;1.98;;;1.70;;
6735;SDS011;3405;50.576;12.364;2023-01-28T05:29:34;2.75;;;2.08;;
6735;SDS011;3405;50.576;12.364;2023-01-28T05:32:00;1.85;;;1.75;;
6735;SDS011;3405;50.576;12.364;2023-01-28T05:34:27;2.15;;;1.90;;
6735;SDS011;3405;50.576;12.364;2023-01-28T05:36:53;2.33;;;2.00;;
6735;SDS011;3405;50.576;12.364;2023-01-28T05:39:19;3.45;;;2.25;;
6735;SDS011;3405;50.576;12.364;2023-01-28T05:41:45;1.98;;;1.80;;
6735;SDS011;3405;50.576;12.364;2023-01-28T05:44:10;1.90;;;1.60;;
6735;SDS011;3405;50.576;12.364;2023-01-28T05:46:36;2.10;;;1.90;;
6735;SDS011;3405;50.576;12.364;2023-01-28T05:49:02;2.47;;;1.95;;
6735;SDS011;3405;50.576;12.364;2023-01-28T05:51:32;3.47;;;1.90;;
6735;SDS011;3405;50.576;12.364;2023-01-28T05:53:58;2.25;;;1.70;;
6735;SDS011;3405;50.576;12.364;2023-01-28T05:56:24;2.03;;;1.73;;
6735;SDS011;3405;50.576;12.364;2023-01-28T05:58:49;1.77;;;1.67;;
6735;SDS011;3405;50.576;12.364;2023-01-28T06:01:15;1.80;;;1.70;;
6735;SDS011;3405;50.576;12.364;2023-01-28T06:03:41;1.70;;;1.60;;
6735;SDS011;3405;50.576;12.364;2023-01-28T06:06:07;1.73;;;1.63;;
6735;SDS011;3405;50.576;12.364;2023-01-28T06:08:36;2.28;;;1.80;;
6735;SDS011;3405;50.576;12.364;2023-01-28T06:11:02;1.90;;;1.70;;
6735;SDS011;3405;50.576;12.364;2023-01-28T06:13:28;2.08;;;1.80;;
6735;SDS011;3405;50.576;12.364;2023-01-28T06:15:54;2.30;;;1.80;;
6735;SDS011;3405;50.576;12.364;2023-01-28T06:18:20;2.47;;;1.80;;
6735;SDS011;3405;50.576;12.364;2023-01-28T06:20:47;2.10;;;1.60;;
6735;SDS011;3405;50.576;12.364;2023-01-28T06:23:13;2.15;;;1.90;;
6735;SDS011;3405;50.576;12.364;2023-01-28T06:25:39;1.67;;;1.58;;
6735;SDS011;3405;50.576;12.364;2023-01-28T06:28:05;1.88;;;1.77;;
6735;SDS011;3405;50.576;12.364;2023-01-28T06:30:31;2.42;;;1.77;;
6735;SDS011;3405;50.576;12.364;2023-01-28T06:32:57;1.83;;;1.70;;
6735;SDS011;3405;50.576;12.364;2023-01-28T06:35:23;1.73;;;1.63;;
6735;SDS011;3405;50.576;12.364;2023-01-28T06:37:49;1.83;;;1.65;;
6735;SDS011;3405;50.576;12.364;2023-01-28T06:40:16;1.85;;;1.45;;
6735;SDS011;3405;50.576;12.364;2023-01-28T06:42:42;2.15;;;1.80;;
6735;SDS011;3405;50.576;12.364;2023-01-28T06:45:08;2.50;;;1.80;;
6735;SDS011;3405;50.576;12.364;2023-01-28T06:47:34;2.35;;;1.90;;
6735;SDS011;3405;50.576;12.364;2023-01-28T06:50:00;1.65;;;1.40;;
6735;SDS011;3405;50.576;12.364;2023-01-28T06:52:26;3.53;;;1.52;;
6735;SDS011;3405;50.576;12.364;2023-01-28T06:54:52;3.92;;;1.50;;
6735;SDS011;3405;50.576;12.364;2023-01-28T06:57:18;2.75;;;1.70;;
6735;SDS011;3405;50.576;12.364;2023-01-28T06:59:43;4.68;;;1.73;;
6735;SDS011;3405;50.576;12.364;2023-01-28T07:02:10;2.63;;;1.90;;
6735;SDS011;3405;50.576;12.364;2023-01-28T07:04:36;2.80;;;2.00;;
6735;SDS011;3405;50.576;12.364;2023-01-28T07:07:02;3.38;;;1.73;;
6735;SDS011;3405;50.576;12.364;2023-01-28T07:09:28;3.10;;;1.70;;
6735;SDS011;3405;50.576;12.364;2023-01-28T07:11:54;2.28;;;1.67;;
6735;SDS011;3405;50.576;12.364;2023-01-28T07:14:20;4.40;;;1.75;;
6735;SDS011;3405;50.576;12.364;2023-01-28T07:16:46;3.75;;;1.80;;
6735;SDS011;3405;50.576;12.364;2023-01-28T07:19:11;6.63;;;1.95;;
6735;SDS011;3405;50.576;12.364;2023-01-28T07:21:37;3.45;;;1.80;;
6735;SDS011;3405;50.576;12.364;2023-01-28T07:24:03;2.92;;;1.75;;
6735;SDS011;3405;50.576;12.364;2023-01-28T07:26:30;4.55;;;1.80;;
6735;SDS011;3405;50.576;12.364;2023-01-28T07:28:56;3.30;;;2.03;;
6735;SDS011;3405;50.576;12.364;2023-01-28T07:31:22;6.32;;;1.60;;
6735;SDS011;3405;50.576;12.364;2023-01-28T07:33:47;2.90;;;1.83;;
6735;SDS011;3405;50.576;12.364;2023-01-28T07:36:13;4.03;;;1.52;;
6735;SDS011;3405;50.576;12.364;2023-01-28T07:38:39;3.15;;;1.83;;
6735;SDS011;3405;50.576;12.364;2023-01-28T07:41:05;3.45;;;1.88;;
6735;SDS011;3405;50.576;12.364;2023-01-28T07:43:34;4.38;;;1.73;;
6735;SDS011;3405;50.576;12.364;2023-01-28T07:46:00;10.15;;;1.95;;
6735;SDS011;3405;50.576;12.364;2023-01-28T07:48:26;3.17;;;1.70;;
6735;SDS011;3405;50.576;12.364;2023-01-28T07:50:53;2.72;;;1.50;;
6735;SDS011;3405;50.576;12.364;2023-01-28T07:53:22;6.40;;;1.70;;
6735;SDS011;3405;50.576;12.364;2023-01-28T07:55:49;5.93;;;1.50;;
6735;SDS011;3405;50.576;12.364;2023-01-28T07:58:14;2.45;;;1.52;;
6735;SDS011;3405;50.576;12.364;2023-01-28T08:00:40;4.45;;;1.42;;
6735;SDS011;3405;50.576;12.364;2023-01-28T08:03:09;2.08;;;1.58;;
6735;SDS011;3405;50.576;12.364;2023-01-28T08:05:39;2.08;;;1.33;;
6735;SDS011;3405;50.576;12.364;2023-01-28T08:08:06;1.73;;;1.30;;
6735;SDS011;3405;50.576;12.364;2023-01-28T08:10:33;3.75;;;1.58;;
6735;SDS011;3405;50.576;12.364;2023-01-28T08:12:59;4.20;;;1.30;;
6735;SDS011;3405;50.576;12.364;2023-01-28T08:15:25;1.85;;;1.13;;
6735;SDS011;3405;50.576;12.364;2023-01-28T08:17:58;1.80;;;1.23;;
6735;SDS011;3405;50.576;12.364;2023-01-28T08:20:24;3.28;;;1.30;;
6735;SDS011;3405;50.576;12.364;2023-01-28T08:22:51;4.32;;;1.75;;
6735;SDS011;3405;50.576;12.364;2023-01-28T08:25:17;3.38;;;1.45;;
6735;SDS011;3405;50.576;12.364;2023-01-28T08:27:43;5.40;;;1.58;;
6735;SDS011;3405;50.576;12.364;2023-01-28T08:30:09;2.83;;;1.30;;
6735;SDS011;3405;50.576;12.364;2023-01-28T08:32:35;2.58;;;1.35;;
6735;SDS011;3405;50.576;12.364;2023-01-28T08:35:01;3.83;;;1.38;;
6735;SDS011;3405;50.576;12.364;2023-01-28T08:37:27;2.50;;;1.10;;
6735;SDS011;3405;50.576;12.364;2023-01-28T08:39:53;2.35;;;1.40;;
6735;SDS011;3405;50.576;12.364;2023-01-28T08:42:19;3.13;;;1.40;;
6735;SDS011;3405;50.576;12.364;2023-01-28T08:44:45;2.78;;;1.50;;
6735;SDS011;3405;50.576;12.364;2023-01-28T08:47:12;4.82;;;1.40;;
6735;SDS011;3405;50.576;12.364;2023-01-28T08:49:38;4.50;;;1.30;;
6735;SDS011;3405;50.576;12.364;2023-01-28T08:52:04;4.40;;;1.30;;
6735;SDS011;3405;50.576;12.364;2023-01-28T08:54:31;3.15;;;1.55;;
6735;SDS011;3405;50.576;12.364;2023-01-28T08:56:57;4.85;;;1.10;;
6735;SDS011;3405;50.576;12.364;2023-01-28T08:59:23;2.88;;;1.45;;
6735;SDS011;3405;50.576;12.364;2023-01-28T09:01:49;3.35;;;1.45;;
6735;SDS011;3405;50.576;12.364;2023-01-28T09:04:15;2.50;;;1.15;;
6735;SDS011;3405;50.576;12.364;2023-01-28T09:06:41;2.35;;;1.23;;
6735;SDS011;3405;50.576;12.364;2023-01-28T09:09:07;4.93;;;1.30;;
6735;SDS011;3405;50.576;12.364;2023-01-28T09:11:33;4.47;;;1.77;;
6735;SDS011;3405;50.576;12.364;2023-01-28T09:13:59;3.30;;;1.38;;
6735;SDS011;3405;50.576;12.364;2023-01-28T09:16:25;3.88;;;1.63;;
6735;SDS011;3405;50.576;12.364;2023-01-28T09:18:51;2.47;;;1.20;;
6735;SDS011;3405;50.576;12.364;2023-01-28T09:21:18;2.25;;;1.20;;
6735;SDS011;3405;50.576;12.364;2023-01-28T09:23:44;2.53;;;1.20;;
6735;SDS011;3405;50.576;12.364;2023-01-28T09:26:10;3.58;;;1.35;;
6735;SDS011;3405;50.576;12.364;2023-01-28T09:28:36;3.45;;;1.45;;
6735;SDS011;3405;50.576;12.364;2023-01-28T09:31:04;2.45;;;1.33;;
6735;SDS011;3405;50.576;12.364;2023-01-28T09:33:31;1.63;;;1.23;;
6735;SDS011;3405;50.576;12.364;2023-01-28T09:36:01;1.27;;;1.02;;
6735;SDS011;3405;50.576;12.364;2023-01-28T09:38:30;2.25;;;1.15;;
6735;SDS011;3405;50.576;12.364;2023-01-28T09:40:57;2.10;;;1.30;;
6735;SDS011;3405;50.576;12.364;2023-01-28T09:43:26;1.23;;;1.10;;
6735;SDS011;3405;50.576;12.364;2023-01-28T09:45:57;1.52;;;1.20;;
6735;SDS011;3405;50.576;12.364;2023-01-28T09:48:25;1.13;;;1.02;;
6735;SDS011;3405;50.576;12.364;2023-01-28T09:50:54;3.10;;;1.30;;
6735;SDS011;3405;50.576;12.364;2023-01-28T09:53:22;2.45;;;1.30;;
6735;SDS011;3405;50.576;12.364;2023-01-28T09:55:55;2.15;;;1.20;;
6735;SDS011;3405;50.576;12.364;2023-01-28T09:58:21;2.50;;;1.13;;
6735;SDS011;3405;50.576;12.364;2023-01-28T10:06:04;2.85;;;1.10;;
6735;SDS011;3405;50.576;12.364;2023-01-28T10:08:42;2.28;;;1.20;;
6735;SDS011;3405;50.576;12.364;2023-01-28T10:11:28;1.92;;;1.23;;
6735;SDS011;3405;50.576;12.364;2023-01-28T10:14:08;1.67;;;1.15;;
6735;SDS011;3405;50.576;12.364;2023-01-28T10:16:42;1.88;;;1.30;;
6735;SDS011;3405;50.576;12.364;2023-01-28T10:19:14;1.52;;;1.40;;
6735;SDS011;3405;50.576;12.364;2023-01-28T10:21:42;2.42;;;1.30;;
6735;SDS011;3405;50.576;12.364;2023-01-28T10:26:38;2.50;;;1.40;;
6735;SDS011;3405;50.576;12.364;2023-01-28T10:29:17;1.20;;;1.08;;
6735;SDS011;3405;50.576;12.364;2023-01-28T10:34:39;1.92;;;1.27;;
6735;SDS011;3405;50.576;12.364;2023-01-28T10:37:05;1.35;;;1.05;;
6735;SDS011;3405;50.576;12.364;2023-01-28T10:39:31;2.35;;;1.00;;
6735;SDS011;3405;50.576;12.364;2023-01-28T10:41:58;2.67;;;1.20;;
6735;SDS011;3405;50.576;12.364;2023-01-28T10:44:31;1.20;;;1.10;;
6735;SDS011;3405;50.576;12.364;2023-01-28T10:47:01;2.40;;;1.25;;
6735;SDS011;3405;50.576;12.364;2023-01-28T10:49:28;1.65;;;1.25;;
6735;SDS011;3405;50.576;12.364;2023-01-28T10:51:54;1.77;;;1.13;;
6735;SDS011;3405;50.576;12.364;2023-01-28T10:54:22;1.23;;;1.10;;
6735;SDS011;3405;50.576;12.364;2023-01-28T10:56:49;2.15;;;1.30;;
6735;SDS011;3405;50.576;12.364;2023-01-28T10:59:26;1.52;;;1.20;;
6735;SDS011;3405;50.576;12.364;2023-01-28T11:01:53;1.13;;;1.02;;
6735;SDS011;3405;50.576;12.364;2023-01-28T11:04:27;1.70;;;1.30;;
6735;SDS011;3405;50.576;12.364;2023-01-28T11:09:24;1.15;;;1.00;;
6735;SDS011;3405;50.576;12.364;2023-01-28T11:11:50;1.45;;;1.15;;
6735;SDS011;3405;50.576;12.364;2023-01-28T11:14:20;1.50;;;1.20;;
6735;SDS011;3405;50.576;12.364;2023-01-28T11:16:46;1.83;;;1.20;;
6735;SDS011;3405;50.576;12.364;2023-01-28T11:19:13;1.40;;;1.10;;
6735;SDS011;3405;50.576;12.364;2023-01-28T11:21:39;1.65;;;1.10;;
6735;SDS011;3405;50.576;12.364;2023-01-28T11:24:13;1.40;;;1.20;;
6735;SDS011;3405;50.576;12.364;2023-01-28T11:26:43;1.20;;;0.98;;
6735;SDS011;3405;50.576;12.364;2023-01-28T11:29:21;2.65;;;1.17;;
6735;SDS011;3405;50.576;12.364;2023-01-28T11:31:47;3.33;;;1.13;;
6735;SDS011;3405;50.576;12.364;2023-01-28T11:34:15;1.27;;;1.17;;
6735;SDS011;3405;50.576;12.364;2023-01-28T11:36:48;1.95;;;1.23;;
6735;SDS011;3405;50.576;12.364;2023-01-28T11:39:32;1.05;;;1.00;;
6735;SDS011;3405;50.576;12.364;2023-01-28T11:42:02;1.20;;;1.10;;
6735;SDS011;3405;50.576;12.364;2023-01-28T11:44:35;1.00;;;0.88;;
6735;SDS011;3405;50.576;12.364;2023-01-28T11:47:22;2.42;;;1.20;;
6735;SDS011;3405;50.576;12.364;2023-01-28T11:50:11;1.13;;;0.90;;
6735;SDS011;3405;50.576;12.364;2023-01-28T11:55:24;1.30;;;1.20;;
6735;SDS011;3405;50.576;12.364;2023-01-28T12:00:36;1.35;;;1.13;;
6735;SDS011;3405;50.576;12.364;2023-01-28T12:03:08;2.15;;;1.08;;
6735;SDS011;3405;50.576;12.364;2023-01-28T12:13:27;1.27;;;1.10;;
6735;SDS011;3405;50.576;12.364;2023-01-28T12:16:04;0.95;;;0.90;;
6735;SDS011;3405;50.576;12.364;2023-01-28T12:18:48;1.30;;;1.20;;
6735;SDS011;3405;50.576;12.364;2023-01-28T12:21:25;1.80;;;1.10;;
6735;SDS011;3405;50.576;12.364;2023-01-28T12:24:12;1.10;;;1.00;;
6735;SDS011;3405;50.576;12.364;2023-01-28T12:31:51;1.85;;;1.05;;
6735;SDS011;3405;50.576;12.364;2023-01-28T12:42:07;9.85;;;2.03;;
6735;SDS011;3405;50.576;12.364;2023-01-28T12:44:37;12.73;;;2.17;;
6735;SDS011;3405;50.576;12.364;2023-01-28T12:47:07;14.75;;;1.90;;
6735;SDS011;3405;50.576;12.364;2023-01-28T12:49:34;15.90;;;2.53;;
6735;SDS011;3405;50.576;12.364;2023-01-28T12:54:38;11.00;;;1.98;;
6735;SDS011;3405;50.576;12.364;2023-01-28T12:57:05;14.43;;;2.92;;
6735;SDS011;3405;50.576;12.364;2023-01-28T12:59:36;11.63;;;2.42;;
6735;SDS011;3405;50.576;12.364;2023-01-28T13:07:25;5.00;;;2.08;;
6735;SDS011;3405;50.576;12.364;2023-01-28T13:10:03;6.90;;;2.53;;
6735;SDS011;3405;50.576;12.364;2023-01-28T13:12:30;10.82;;;2.50;;
6735;SDS011;3405;50.576;12.364;2023-01-28T13:14:58;10.20;;;2.22;;
6735;SDS011;3405;50.576;12.364;2023-01-28T13:17:25;13.18;;;2.50;;
6735;SDS011;3405;50.576;12.364;2023-01-28T13:19:52;6.32;;;2.33;;
6735;SDS011;3405;50.576;12.364;2023-01-28T13:22:28;4.68;;;2.20;;
6735;SDS011;3405;50.576;12.364;2023-01-28T13:24:55;8.27;;;2.45;;
6735;SDS011;3405;50.576;12.364;2023-01-28T13:27:24;5.00;;;2.10;;
6735;SDS011;3405;50.576;12.364;2023-01-28T13:30:01;6.68;;;2.22;;
6735;SDS011;3405;50.576;12.364;2023-01-28T13:32:29;8.20;;;2.40;;
6735;SDS011;3405;50.576;12.364;2023-01-28T13:34:57;5.32;;;2.10;;
6735;SDS011;3405;50.576;12.364;2023-01-28T13:37:30;5.93;;;2.00;;
6735;SDS011;3405;50.576;12.364;2023-01-28T13:42:38;2.80;;;2.00;;
6735;SDS011;3405;50.576;12.364;2023-01-28T13:47:42;3.08;;;1.98;;
6735;SDS011;3405;50.576;12.364;2023-01-28T13:50:14;3.22;;;1.60;;
6735;SDS011;3405;50.576;12.364;2023-01-28T13:57:43;6.07;;;2.22;;
6735;SDS011;3405;50.576;12.364;2023-01-28T14:00:15;7.78;;;3.97;;
6735;SDS011;3405;50.576;12.364;2023-01-28T14:13:28;11.55;;;6.70;;
6735;SDS011;3405;50.576;12.364;2023-01-28T14:16:04;7.88;;;6.60;;
6735;SDS011;3405;50.576;12.364;2023-01-28T14:18:34;10.85;;;6.40;;
6735;SDS011;3405;50.576;12.364;2023-01-28T14:21:02;10.50;;;5.85;;
6735;SDS011;3405;50.576;12.364;2023-01-28T14:23:28;8.38;;;5.78;;
6735;SDS011;3405;50.576;12.364;2023-01-28T14:28:43;7.82;;;5.68;;
6735;SDS011;3405;50.576;12.364;2023-01-28T14:31:21;5.63;;;5.10;;
6735;SDS011;3405;50.576;12.364;2023-01-28T14:33:49;7.72;;;5.22;;
6735;SDS011;3405;50.576;12.364;2023-01-28T14:36:15;7.75;;;5.07;;
6735;SDS011;3405;50.576;12.364;2023-01-28T14:38:42;7.07;;;5.28;;
6735;SDS011;3405;50.576;12.364;2023-01-28T14:41:08;6.05;;;5.07;;
6735;SDS011;3405;50.576;12.364;2023-01-28T14:43:35;6.82;;;4.88;;
6735;SDS011;3405;50.576;12.364;2023-01-28T14:48:33;7.20;;;4.93;;
6735;SDS011;3405;50.576;12.364;2023-01-28T14:58:40;6.07;;;4.25;;
6735;SDS011;3405;50.576;12.364;2023-01-28T15:01:18;4.38;;;3.85;;
6735;SDS011;3405;50.576;12.364;2023-01-28T15:03:44;6.13;;;4.07;;
6735;SDS011;3405;50.576;12.364;2023-01-28T15:06:14;5.13;;;3.65;;
6735;SDS011;3405;50.576;12.364;2023-01-28T15:08:41;5.15;;;3.83;;
6735;SDS011;3405;50.576;12.364;2023-01-28T15:11:08;5.40;;;4.35;;
6735;SDS011;3405;50.576;12.364;2023-01-28T15:13:36;6.28;;;4.28;;
6735;SDS011;3405;50.576;12.364;2023-01-28T15:16:03;4.50;;;3.63;;
6735;SDS011;3405;50.576;12.364;2023-01-28T15:18:31;5.00;;;4.22;;
6735;SDS011;3405;50.576;12.364;2023-01-28T15:20:58;7.15;;;4.78;;
6735;SDS011;3405;50.576;12.364;2023-01-28T15:23:35;6.82;;;5.00;;
6735;SDS011;3405;50.576;12.364;2023-01-28T15:26:18;7.45;;;5.57;;
6735;SDS011;3405;50.576;12.364;2023-01-28T15:28:45;9.68;;;6.97;;
6735;SDS011;3405;50.576;12.364;2023-01-28T15:31:17;9.73;;;6.18;;
6735;SDS011;3405;50.576;12.364;2023-01-28T15:33:44;8.30;;;5.53;;
6735;SDS011;3405;50.576;12.364;2023-01-28T15:36:09;10.68;;;4.63;;
6735;SDS011;3405;50.576;12.364;2023-01-28T15:38:35;7.35;;;5.05;;
6735;SDS011;3405;50.576;12.364;2023-01-28T15:41:01;8.82;;;4.78;;
6735;SDS011;3405;50.576;12.364;2023-01-28T15:43:28;7.03;;;4.53;;
6735;SDS011;3405;50.576;12.364;2023-01-28T15:45:56;6.18;;;4.30;;
6735;SDS011;3405;50.576;12.364;2023-01-28T15:48:23;5.07;;;4.15;;
6735;SDS011;3405;50.576;12.364;2023-01-28T15:50:57;6.35;;;3.70;;
6735;SDS011;3405;50.576;12.364;2023-01-28T15:53:23;7.15;;;3.72;;
6735;SDS011;3405;50.576;12.364;2023-01-28T15:55:49;5.15;;;3.30;;
6735;SDS011;3405;50.576;12.364;2023-01-28T15:58:17;8.90;;;3.88;;
6735;SDS011;3405;50.576;12.364;2023-01-28T16:00:43;7.53;;;3.95;;
6735;SDS011;3405;50.576;12.364;2023-01-28T16:03:15;4.97;;;3.10;;
6735;SDS011;3405;50.576;12.364;2023-01-28T16:05:42;4.25;;;3.20;;
6735;SDS011;3405;50.576;12.364;2023-01-28T16:08:26;3.85;;;3.40;;
6735;SDS011;3405;50.576;12.364;2023-01-28T16:10:53;4.18;;;2.97;;
6735;SDS011;3405;50.576;12.364;2023-01-28T16:13:20;4.82;;;3.20;;
6735;SDS011;3405;50.576;12.364;2023-01-28T16:15:47;3.80;;;2.88;;
6735;SDS011;3405;50.576;12.364;2023-01-28T16:18:18;3.20;;;2.90;;
6735;SDS011;3405;50.576;12.364;2023-01-28T16:20:48;5.40;;;2.80;;
6735;SDS011;3405;50.576;12.364;2023-01-28T16:23:23;3.25;;;2.83;;
6735;SDS011;3405;50.576;12.364;2023-01-28T16:26:00;3.78;;;2.88;;
6735;SDS011;3405;50.576;12.364;2023-01-28T16:28:26;4.97;;;2.70;;
6735;SDS011;3405;50.576;12.364;2023-01-28T16:30:56;5.07;;;2.83;;
6735;SDS011;3405;50.576;12.364;2023-01-28T16:33:23;3.38;;;2.40;;
6735;SDS011;3405;50.576;12.364;2023-01-28T16:35:49;3.05;;;2.58;;
6735;SDS011;3405;50.576;12.364;2023-01-28T16:38:16;3.75;;;2.90;;
6735;SDS011;3405;50.576;12.364;2023-01-28T16:40:42;4.35;;;2.70;;